createdAt,value
2023-02-05T00:01:38.626Z,-4.59
2023-02-05T00:04:06.155Z,-4.57
2023-02-05T00:06:33.659Z,-4.60
2023-02-05T00:09:01.117Z,-4.66
2023-02-05T00:11:28.583Z,-4.67
2023-02-05T00:13:56.044Z,-4.68
2023-02-05T00:16:25.179Z,-4.65
2023-02-05T00:18:53.117Z,-4.74
2023-02-05T00:21:22.389Z,-4.77
2023-02-05T00:23:49.960Z,-4.79
2023-02-05T00:26:18.017Z,-4.80
2023-02-05T00:28:47.168Z,-4.81
2023-02-05T00:31:21.673Z,-4.85
2023-02-05T00:33:50.743Z,-4.81
2023-02-05T00:36:19.912Z,-4.88
2023-02-05T00:38:47.603Z,-4.93
2023-02-05T00:41:15.353Z,-4.92
2023-02-05T00:43:43.129Z,-4.88
2023-02-05T00:46:11.132Z,-4.91
2023-02-05T00:48:39.663Z,-4.97
2023-02-05T00:51:09.850Z,-4.95
2023-02-05T00:53:37.416Z,-4.99
2023-02-05T00:56:05.226Z,-5.03
2023-02-05T00:58:32.903Z,-5.04
2023-02-05T01:01:00.279Z,-5.04
2023-02-05T01:03:27.892Z,-5.02
2023-02-05T01:05:55.367Z,-5.06
2023-02-05T01:08:22.918Z,-5.02
2023-02-05T01:10:51.254Z,-5.03
2023-02-05T01:13:19.369Z,-5.00
2023-02-05T01:15:46.971Z,-5.00
2023-02-05T01:18:14.404Z,-5.00
2023-02-05T01:20:42.815Z,-5.04
2023-02-05T01:23:11.140Z,-5.04
2023-02-05T01:25:38.850Z,-5.08
2023-02-05T01:28:07.206Z,-5.10
2023-02-05T01:30:35.461Z,-5.14
2023-02-05T01:33:04.047Z,-5.13
2023-02-05T01:35:32.216Z,-5.18
2023-02-05T01:37:59.796Z,-5.20
2023-02-05T01:40:27.795Z,-5.23
2023-02-05T01:42:55.276Z,-5.23
2023-02-05T01:45:22.592Z,-5.07
2023-02-05T01:47:55.884Z,-4.89
2023-02-05T01:50:55.941Z,-4.92
2023-02-05T01:53:26.883Z,-5.01
2023-02-05T01:55:57.984Z,-5.11
2023-02-05T01:58:29.738Z,-5.25
2023-02-05T02:00:57.273Z,-5.34
2023-02-05T02:03:28.170Z,-5.24
2023-02-05T02:05:56.328Z,-5.18
2023-02-05T02:08:25.457Z,-5.16
2023-02-05T02:10:56.830Z,-5.20
2023-02-05T02:13:27.496Z,-5.22
2023-02-05T02:15:55.662Z,-5.24
2023-02-05T02:18:27.410Z,-5.14
2023-02-05T02:21:28.472Z,-5.23
2023-02-05T02:24:11.097Z,-5.21
2023-02-05T02:26:53.507Z,-5.24
2023-02-05T02:29:53.751Z,-5.25
2023-02-05T02:32:27.022Z,-5.29
2023-02-05T02:35:10.405Z,-5.35
2023-02-05T02:38:08.149Z,-5.44
2023-02-05T02:40:46.745Z,-5.40
2023-02-05T02:43:27.936Z,-5.46
2023-02-05T02:46:16.839Z,-5.44
2023-02-05T02:48:48.085Z,-5.42
2023-02-05T02:51:18.465Z,-5.47
2023-02-05T02:53:49.351Z,-5.47
2023-02-05T02:56:19.352Z,-5.43
2023-02-05T02:58:59.622Z,-5.54
2023-02-05T03:01:34.919Z,-5.52
2023-02-05T03:04:14.290Z,-5.51
2023-02-05T03:06:46.061Z,-5.48
2023-02-05T03:09:25.399Z,-5.58
2023-02-05T03:11:53.007Z,-5.60
2023-02-05T03:14:21.819Z,-5.55
2023-02-05T03:16:49.545Z,-5.48
2023-02-05T03:19:17.208Z,-5.56
2023-02-05T03:21:50.618Z,-5.56
2023-02-05T03:24:18.374Z,-5.57
2023-02-05T03:26:45.674Z,-5.57
2023-02-05T03:29:23.886Z,-5.60
2023-02-05T03:32:35.073Z,-5.64
2023-02-05T03:35:17.734Z,-5.70
2023-02-05T03:38:16.510Z,-5.68
2023-02-05T03:41:05.337Z,-5.60
2023-02-05T03:43:52.197Z,-5.63
2023-02-05T03:46:40.270Z,-5.64
2023-02-05T03:49:28.551Z,-5.72
2023-02-05T03:51:59.116Z,-5.74
2023-02-05T03:54:39.636Z,-5.81
2023-02-05T03:57:24.767Z,-5.74
2023-02-05T03:59:53.608Z,-5.74
2023-02-05T04:02:22.684Z,-5.82
2023-02-05T04:04:50.251Z,-5.89
2023-02-05T04:07:17.865Z,-5.97
2023-02-05T04:09:47.351Z,-5.99
2023-02-05T04:12:14.963Z,-6.01
2023-02-05T04:14:42.466Z,-5.99
2023-02-05T04:17:12.295Z,-5.89
2023-02-05T04:19:41.634Z,-5.96
2023-02-05T04:22:10.288Z,-6.01
2023-02-05T04:24:41.024Z,-5.99
2023-02-05T04:27:09.436Z,-6.04
2023-02-05T04:29:36.951Z,-6.09
2023-02-05T04:32:06.143Z,-6.04
2023-02-05T04:34:33.506Z,-5.99
2023-02-05T04:37:02.278Z,-5.88
2023-02-05T04:39:31.128Z,-5.94
2023-02-05T04:41:58.642Z,-6.01
2023-02-05T04:44:28.038Z,-6.07
2023-02-05T04:46:55.496Z,-6.11
2023-02-05T04:49:23.004Z,-6.14
2023-02-05T04:51:50.365Z,-6.20
2023-02-05T04:54:17.664Z,-6.24
2023-02-05T04:56:45.708Z,-6.29
2023-02-05T04:59:13.049Z,-6.29
2023-02-05T05:01:40.862Z,-6.28
2023-02-05T05:04:09.188Z,-6.31
2023-02-05T05:06:36.664Z,-6.27
2023-02-05T05:09:04.203Z,-6.25
2023-02-05T05:11:31.789Z,-6.20
2023-02-05T05:13:59.059Z,-6.14
2023-02-05T05:16:26.573Z,-6.07
2023-02-05T05:18:53.918Z,-6.00
2023-02-05T05:21:21.234Z,-5.85
2023-02-05T05:23:48.880Z,-5.74
2023-02-05T05:26:16.732Z,-5.66
2023-02-05T05:28:43.956Z,-5.58
2023-02-05T05:31:17.004Z,-5.54
2023-02-05T05:33:44.376Z,-5.55
2023-02-05T05:36:12.853Z,-5.49
2023-02-05T05:38:40.593Z,-5.35
2023-02-05T05:41:26.906Z,-5.51
2023-02-05T05:43:54.593Z,-5.50
2023-02-05T05:46:25.448Z,-5.52
2023-02-05T05:48:57.626Z,-5.57
2023-02-05T05:51:27.495Z,-5.48
2023-02-05T05:53:55.692Z,-5.58
2023-02-05T05:56:23.679Z,-5.63
2023-02-05T05:58:51.373Z,-5.60
2023-02-05T06:01:20.424Z,-5.59
2023-02-05T06:03:47.717Z,-5.70
2023-02-05T06:06:15.114Z,-5.73
2023-02-05T06:08:47.330Z,-5.72
2023-02-05T06:11:15.332Z,-5.72
2023-02-05T06:13:42.679Z,-5.71
2023-02-05T06:16:10.382Z,-5.68
2023-02-05T06:18:37.725Z,-5.72
2023-02-05T06:21:06.007Z,-5.76
2023-02-05T06:23:34.324Z,-5.77
2023-02-05T06:26:01.699Z,-5.89
2023-02-05T06:28:29.033Z,-5.97
2023-02-05T06:30:56.400Z,-5.95
2023-02-05T06:33:27.134Z,-5.99
2023-02-05T06:35:54.532Z,-6.04
2023-02-05T06:38:22.292Z,-6.06
2023-02-05T06:40:49.901Z,-6.09
2023-02-05T06:43:17.131Z,-6.03
2023-02-05T06:45:44.411Z,-6.02
2023-02-05T06:48:11.719Z,-6.01
2023-02-05T06:50:39.063Z,-6.01
2023-02-05T06:53:06.393Z,-5.99
2023-02-05T06:55:34.198Z,-5.88
2023-02-05T06:58:01.613Z,-5.84
2023-02-05T07:00:29.599Z,-5.81
2023-02-05T07:02:57.901Z,-5.75
2023-02-05T07:05:25.760Z,-5.70
2023-02-05T07:07:53.065Z,-5.63
2023-02-05T07:10:20.861Z,-5.55
2023-02-05T07:12:48.167Z,-5.48
2023-02-05T07:15:16.106Z,-5.33
2023-02-05T07:17:43.657Z,-5.20
2023-02-05T07:20:11.456Z,-5.07
2023-02-05T07:22:38.877Z,-4.83
2023-02-05T07:25:06.648Z,-4.85
2023-02-05T07:27:33.997Z,-4.83
2023-02-05T07:30:01.340Z,-4.81
2023-02-05T07:32:28.831Z,-4.78
2023-02-05T07:34:56.157Z,-4.85
2023-02-05T07:37:23.444Z,-4.81
2023-02-05T07:39:50.874Z,-4.80
2023-02-05T07:42:18.210Z,-4.80
2023-02-05T07:44:51.528Z,-4.75
2023-02-05T07:47:19.084Z,-4.67
2023-02-05T07:49:46.424Z,-4.71
2023-02-05T07:52:13.612Z,-4.53
2023-02-05T07:54:41.368Z,-4.59
2023-02-05T07:57:08.634Z,-4.67
2023-02-05T07:59:35.847Z,-4.61
2023-02-05T08:02:03.581Z,-4.58
2023-02-05T08:04:30.998Z,-4.57
2023-02-05T08:06:58.352Z,-4.51
2023-02-05T08:09:25.764Z,-4.46
2023-02-05T08:11:53.073Z,-4.45
2023-02-05T08:14:20.435Z,-4.53
2023-02-05T08:16:47.740Z,-4.53
2023-02-05T08:19:17.217Z,-4.48
2023-02-05T08:21:45.182Z,-4.35
2023-02-05T08:24:13.266Z,-4.20
2023-02-05T08:26:40.802Z,-4.11
2023-02-05T08:29:08.630Z,-4.04
2023-02-05T08:31:36.338Z,-4.03
2023-02-05T08:34:04.436Z,-4.01
2023-02-05T08:36:31.847Z,-3.76
2023-02-05T08:38:59.241Z,-3.70
2023-02-05T08:41:26.671Z,-3.64
2023-02-05T08:43:53.992Z,-3.61
2023-02-05T08:46:25.975Z,-3.55
2023-02-05T08:48:54.244Z,-3.76
2023-02-05T08:51:23.093Z,-3.76
2023-02-05T08:53:50.698Z,-3.76
2023-02-05T08:56:20.128Z,-3.51
2023-02-05T08:58:47.627Z,-3.35
2023-02-05T09:01:17.260Z,-3.40
2023-02-05T09:03:45.571Z,-3.20
2023-02-05T09:06:15.198Z,-3.17
2023-02-05T09:08:43.085Z,-3.09
2023-02-05T09:11:10.880Z,-3.04
2023-02-05T09:13:38.235Z,-2.93
2023-02-05T09:16:07.548Z,-2.55
2023-02-05T09:18:35.354Z,-2.29
2023-02-05T09:21:05.909Z,-1.31
2023-02-05T09:23:33.289Z,-1.11
2023-02-05T09:26:00.912Z,-1.01
2023-02-05T09:28:28.227Z,-0.78
2023-02-05T09:30:55.683Z,-0.49
2023-02-05T09:33:23.037Z,0.35
2023-02-05T09:35:50.377Z,1.35
2023-02-05T09:38:18.773Z,0.62
2023-02-05T09:41:05.464Z,0.02
2023-02-05T09:44:05.738Z,-0.41
2023-02-05T09:47:17.683Z,-0.58
2023-02-05T09:49:55.592Z,-1.37
2023-02-05T09:52:29.297Z,-1.50
2023-02-05T09:55:04.020Z,-1.67
2023-02-05T09:57:37.479Z,-1.72
2023-02-05T10:00:16.913Z,-1.74
2023-02-05T10:03:07.549Z,-2.03
2023-02-05T10:05:47.360Z,-1.89
2023-02-05T10:08:36.254Z,-1.84
2023-02-05T10:11:13.964Z,-1.76
2023-02-05T10:13:42.958Z,-1.55
2023-02-05T10:16:41.237Z,-1.29
2023-02-05T10:19:14.547Z,-1.09
2023-02-05T10:21:47.954Z,-1.26
2023-02-05T10:24:21.407Z,-1.59
2023-02-05T10:26:57.274Z,-1.33
2023-02-05T10:29:33.444Z,-1.34
2023-02-05T10:32:15.268Z,-1.22
2023-02-05T10:34:53.768Z,-1.35
2023-02-05T10:37:28.110Z,-1.41
2023-02-05T10:39:57.663Z,-1.26
2023-02-05T10:42:39.752Z,-1.26
2023-02-05T10:45:29.162Z,-1.23
2023-02-05T10:47:56.618Z,-1.31
2023-02-05T10:50:51.613Z,-1.11
2023-02-05T10:53:22.352Z,-0.90
2023-02-05T10:55:50.220Z,-0.82
2023-02-05T10:58:40.718Z,-0.79
2023-02-05T11:01:14.504Z,-0.71
2023-02-05T11:03:53.575Z,-0.68
2023-02-05T11:06:24.457Z,-0.67
2023-02-05T11:08:52.664Z,-0.72
2023-02-05T11:11:21.587Z,-0.83
2023-02-05T11:13:56.208Z,-0.72
2023-02-05T11:16:34.277Z,-0.73
2023-02-05T11:19:01.920Z,-0.60
2023-02-05T11:21:50.486Z,-0.55
2023-02-05T11:24:30.122Z,-0.45
2023-02-05T11:27:16.059Z,-0.46
2023-02-05T11:29:43.847Z,-0.39
2023-02-05T11:32:22.693Z,-0.44
2023-02-05T11:34:50.350Z,-0.46
2023-02-05T11:37:19.042Z,-0.55
2023-02-05T11:39:53.873Z,-0.67
2023-02-05T11:42:24.917Z,-0.62
2023-02-05T11:45:01.245Z,-0.45
2023-02-05T11:47:38.419Z,-0.49
2023-02-05T11:50:18.871Z,-0.34
2023-02-05T11:52:46.439Z,-0.31
2023-02-05T11:55:32.089Z,-0.34
2023-02-05T11:58:02.737Z,-0.25
2023-02-05T12:00:30.640Z,-0.23
2023-02-05T12:03:05.713Z,-0.18
2023-02-05T12:05:38.853Z,-0.11
2023-02-05T12:08:26.989Z,-0.01
2023-02-05T12:11:09.404Z,-0.05
2023-02-05T12:14:02.414Z,0.15
2023-02-05T12:16:32.812Z,0.06
2023-02-05T12:19:03.403Z,0.04
2023-02-05T12:21:43.071Z,0.12
2023-02-05T12:24:16.513Z,0.27
2023-02-05T12:26:47.641Z,0.21
2023-02-05T12:29:54.126Z,-0.04
2023-02-05T12:32:50.499Z,0.20
2023-02-05T12:35:41.002Z,0.20
2023-02-05T12:38:32.294Z,0.20
2023-02-05T12:41:20.322Z,0.30
2023-02-05T12:43:48.588Z,0.10
2023-02-05T12:46:21.803Z,-0.18
2023-02-05T12:49:36.760Z,-0.20
2023-02-05T12:52:10.245Z,-0.21
2023-02-05T12:54:56.285Z,-0.07
2023-02-05T12:57:38.371Z,-0.07
2023-02-05T13:00:14.105Z,-0.19
2023-02-05T13:02:41.441Z,-0.19
2023-02-05T13:05:38.205Z,-0.31
2023-02-05T13:08:19.728Z,-0.38
2023-02-05T13:10:57.990Z,-0.34
2023-02-05T13:13:30.522Z,-0.40
2023-02-05T13:16:12.807Z,-0.44
2023-02-05T13:18:55.583Z,-0.55
2023-02-05T13:21:41.678Z,-0.50
2023-02-05T13:24:57.067Z,-0.58
2023-02-05T13:27:51.872Z,-0.48
2023-02-05T13:30:31.032Z,-0.66
2023-02-05T13:33:03.532Z,-0.65
2023-02-05T13:35:40.202Z,-0.62
2023-02-05T13:38:17.492Z,-0.73
2023-02-05T13:41:03.569Z,-0.54
2023-02-05T13:43:52.545Z,-0.53
2023-02-05T13:46:39.918Z,-0.49
2023-02-05T13:49:14.603Z,-0.62
2023-02-05T13:52:26.853Z,-0.67
2023-02-05T13:55:03.063Z,-0.66
2023-02-05T13:58:08.285Z,-0.60
2023-02-05T14:00:38.691Z,-0.58
2023-02-05T14:03:09.837Z,-0.38
2023-02-05T14:05:42.904Z,-0.49
2023-02-05T14:08:26.443Z,-0.38
2023-02-05T14:11:03.529Z,-0.49
2023-02-05T14:13:34.521Z,-0.46
2023-02-05T14:16:23.854Z,-0.53
2023-02-05T14:19:12.138Z,-0.56
2023-02-05T14:21:45.552Z,-0.55
2023-02-05T14:24:38.358Z,-0.73
2023-02-05T14:27:26.056Z,-0.74
2023-02-05T14:29:53.959Z,-0.74
2023-02-05T14:32:27.912Z,-0.77
2023-02-05T14:35:02.255Z,-0.71
2023-02-05T14:37:32.970Z,-0.84
2023-02-05T14:40:14.085Z,-0.72
2023-02-05T14:42:43.019Z,-0.79
2023-02-05T14:45:16.192Z,-0.79
2023-02-05T14:47:45.045Z,-0.82
2023-02-05T14:50:22.382Z,-0.82
2023-02-05T14:52:58.815Z,-0.73
2023-02-05T14:55:37.789Z,-0.91
2023-02-05T14:58:10.806Z,-1.09
2023-02-05T15:00:42.144Z,-1.13
2023-02-05T15:03:12.737Z,-1.16
2023-02-05T15:05:46.891Z,-1.13
2023-02-05T15:08:17.293Z,-1.12
2023-02-05T15:10:50.836Z,-1.22
2023-02-05T15:13:20.244Z,-1.26
2023-02-05T15:16:08.421Z,-1.34
2023-02-05T15:18:43.435Z,-1.36
2023-02-05T15:21:25.225Z,-1.31
2023-02-05T15:24:03.013Z,-1.44
2023-02-05T15:26:41.846Z,-1.39
2023-02-05T15:29:28.010Z,-1.41
2023-02-05T15:32:14.606Z,-1.60
2023-02-05T15:34:47.816Z,-1.56
2023-02-05T15:37:21.174Z,-1.53
2023-02-05T15:39:55.285Z,-1.58
2023-02-05T15:42:35.255Z,-1.52
2023-02-05T15:45:26.237Z,-1.67
2023-02-05T15:48:11.844Z,-1.63
2023-02-05T15:50:49.242Z,-1.74
2023-02-05T15:53:39.077Z,-1.64
2023-02-05T15:56:12.461Z,-1.75
2023-02-05T15:58:47.811Z,-1.67
2023-02-05T16:01:40.085Z,-1.65
2023-02-05T16:04:22.776Z,-1.65
2023-02-05T16:06:50.212Z,-1.69
2023-02-05T16:09:24.347Z,-1.71
2023-02-05T16:11:52.528Z,-1.77
2023-02-05T16:14:28.744Z,-1.77
2023-02-05T16:17:15.334Z,-1.94
2023-02-05T16:19:54.378Z,-1.92
2023-02-05T16:22:42.786Z,-1.97
2023-02-05T16:25:34.805Z,-2.03
2023-02-05T16:28:17.496Z,-2.15
2023-02-05T16:30:58.538Z,-2.08
2023-02-05T16:33:41.896Z,-2.08
2023-02-05T16:36:31.909Z,-2.03
2023-02-05T16:39:02.190Z,-2.05
2023-02-05T16:41:37.058Z,-2.13
2023-02-05T16:44:07.512Z,-2.20
2023-02-05T16:46:36.549Z,-2.22
2023-02-05T16:49:31.183Z,-2.33
2023-02-05T16:52:01.137Z,-2.38
2023-02-05T16:54:32.383Z,-2.44
2023-02-05T16:57:16.807Z,-2.33
2023-02-05T16:59:47.107Z,-2.38
2023-02-05T17:02:39.947Z,-2.44
2023-02-05T17:05:21.922Z,-2.38
2023-02-05T17:08:00.897Z,-2.41
2023-02-05T17:10:31.711Z,-2.47
2023-02-05T17:13:05.146Z,-2.50
2023-02-05T17:15:36.260Z,-2.48
2023-02-05T17:18:20.083Z,-2.41
2023-02-05T17:20:47.598Z,-2.52
2023-02-05T17:23:16.425Z,-2.52
2023-02-05T17:25:54.292Z,-2.57
2023-02-05T17:28:28.364Z,-2.48
2023-02-05T17:31:00.332Z,-2.58
2023-02-05T17:33:28.781Z,-2.66
2023-02-05T17:35:59.032Z,-2.72
2023-02-05T17:38:26.214Z,-2.50
2023-02-05T17:41:13.405Z,-2.51
2023-02-05T17:43:40.712Z,-2.56
2023-02-05T17:46:13.426Z,-2.66
2023-02-05T17:48:41.027Z,-2.75
2023-02-05T17:51:18.009Z,-2.75
2023-02-05T17:53:45.062Z,-2.72
2023-02-05T17:56:13.670Z,-2.68
2023-02-05T17:58:41.769Z,-2.71
2023-02-05T18:01:11.801Z,-2.81
2023-02-05T18:03:40.916Z,-2.90
2023-02-05T18:06:10.463Z,-2.91
2023-02-05T18:08:37.585Z,-2.96
2023-02-05T18:11:07.242Z,-3.00
2023-02-05T18:13:34.851Z,-3.02
2023-02-05T18:16:03.471Z,-3.08
2023-02-05T18:18:32.564Z,-3.11
2023-02-05T18:20:59.832Z,-3.11
2023-02-05T18:23:29.468Z,-3.14
2023-02-05T18:25:57.912Z,-3.21
2023-02-05T18:28:25.252Z,-3.28
2023-02-05T18:31:11.257Z,-3.30
2023-02-05T18:33:38.416Z,-3.29
2023-02-05T18:36:12.104Z,-3.28
2023-02-05T18:38:41.404Z,-3.28
2023-02-05T18:41:10.424Z,-3.16
2023-02-05T18:43:38.072Z,-3.14
2023-02-05T18:46:10.198Z,-3.11
2023-02-05T18:48:38.136Z,-3.24
2023-02-05T18:51:11.336Z,-3.22
2023-02-05T18:53:39.384Z,-3.42
2023-02-05T18:56:11.236Z,-3.39
2023-02-05T18:58:38.315Z,-3.38
2023-02-05T19:01:10.674Z,-3.39
2023-02-05T19:03:38.797Z,-3.42
2023-02-05T19:06:07.026Z,-3.43
2023-02-05T19:08:34.699Z,-3.46
2023-02-05T19:11:17.382Z,-3.54
2023-02-05T19:13:44.578Z,-3.67
2023-02-05T19:16:14.780Z,-3.71
2023-02-05T19:18:46.546Z,-3.72
2023-02-05T19:21:16.472Z,-3.67
2023-02-05T19:23:44.827Z,-3.76
2023-02-05T19:26:14.595Z,-3.83
2023-02-05T19:28:43.631Z,-3.87
2023-02-05T19:31:13.764Z,-3.81
2023-02-05T19:33:41.501Z,-3.71
2023-02-05T19:36:10.618Z,-3.76
2023-02-05T19:38:40.176Z,-3.80
2023-02-05T19:41:17.124Z,-3.77
2023-02-05T19:43:50.550Z,-3.77
2023-02-05T19:46:25.008Z,-3.78
2023-02-05T19:48:53.437Z,-3.80
2023-02-05T19:51:21.445Z,-3.83
2023-02-05T19:53:48.834Z,-3.95
2023-02-05T19:56:21.796Z,-4.00
2023-02-05T19:58:51.438Z,-3.99
2023-02-05T20:01:30.475Z,-4.03
2023-02-05T20:04:08.267Z,-4.04
2023-02-05T20:06:36.522Z,-4.08
2023-02-05T20:09:10.271Z,-4.04
2023-02-05T20:11:38.705Z,-3.97
2023-02-05T20:14:07.222Z,-4.01
2023-02-05T20:16:35.228Z,-4.01
2023-02-05T20:19:02.765Z,-4.02
2023-02-05T20:21:30.444Z,-4.03
2023-02-05T20:23:57.851Z,-4.11
2023-02-05T20:26:25.561Z,-4.12
2023-02-05T20:29:12.249Z,-4.16
2023-02-05T20:31:43.032Z,-4.14
2023-02-05T20:34:18.354Z,-4.08
2023-02-05T20:36:47.105Z,-4.16
2023-02-05T20:39:17.090Z,-4.19
2023-02-05T20:41:49.308Z,-4.27
2023-02-05T20:44:17.515Z,-4.26
2023-02-05T20:46:45.028Z,-4.27
2023-02-05T20:49:12.451Z,-4.32
2023-02-05T20:51:40.064Z,-4.26
2023-02-05T20:54:07.786Z,-4.18
2023-02-05T20:56:35.543Z,-4.33
2023-02-05T20:59:04.904Z,-4.37
2023-02-05T21:01:36.778Z,-4.49
2023-02-05T21:04:05.555Z,-4.64
2023-02-05T21:06:36.106Z,-4.63
2023-02-05T21:09:04.186Z,-4.73
2023-02-05T21:11:31.836Z,-4.79
2023-02-05T21:13:59.055Z,-4.75
2023-02-05T21:16:27.692Z,-4.80
2023-02-05T21:18:55.601Z,-4.91
2023-02-05T21:21:24.224Z,-4.96
2023-02-05T21:24:05.981Z,-5.01
2023-02-05T21:26:38.615Z,-5.02
2023-02-05T21:29:15.697Z,-5.05
2023-02-05T21:31:47.385Z,-5.15
2023-02-05T21:34:17.765Z,-5.01
2023-02-05T21:36:47.243Z,-5.01
2023-02-05T21:39:17.703Z,-5.09
2023-02-05T21:41:45.686Z,-5.10
2023-02-05T21:44:13.463Z,-5.04
2023-02-05T21:46:40.740Z,-5.01
2023-02-05T21:49:07.748Z,-5.10
2023-02-05T21:51:35.547Z,-5.08
2023-02-05T21:54:03.958Z,-5.09
2023-02-05T21:56:36.841Z,-5.08
2023-02-05T21:59:04.545Z,-5.05
2023-02-05T22:01:32.553Z,-5.07
2023-02-05T22:04:02.215Z,-5.04
2023-02-05T22:06:33.795Z,-4.94
2023-02-05T22:09:03.862Z,-4.85
2023-02-05T22:11:31.951Z,-4.83
2023-02-05T22:13:59.078Z,-4.87
2023-02-05T22:16:31.701Z,-4.87
2023-02-05T22:19:00.167Z,-4.93
2023-02-05T22:21:29.588Z,-4.98
2023-02-05T22:23:58.614Z,-4.99
2023-02-05T22:26:34.268Z,-4.95
2023-02-05T22:29:05.239Z,-5.01
2023-02-05T22:31:33.208Z,-5.10
2023-02-05T22:34:03.562Z,-5.13
2023-02-05T22:36:33.091Z,-5.15
2023-02-05T22:39:01.145Z,-5.16
2023-02-05T22:41:31.629Z,-5.21
2023-02-05T22:44:00.643Z,-5.25
2023-02-05T22:46:31.101Z,-5.25
2023-02-05T22:49:00.594Z,-5.29
2023-02-05T22:51:31.509Z,-5.35
2023-02-05T22:54:00.576Z,-5.37
2023-02-05T22:56:34.027Z,-5.40
2023-02-05T22:59:03.987Z,-5.44
2023-02-05T23:01:33.768Z,-5.46
2023-02-05T23:04:06.938Z,-5.54
2023-02-05T23:06:43.959Z,-5.58
2023-02-05T23:09:17.763Z,-5.63
2023-02-05T23:11:47.743Z,-5.62
2023-02-05T23:14:16.988Z,-5.61
2023-02-05T23:16:45.979Z,-5.63
2023-02-05T23:19:18.746Z,-5.59
2023-02-05T23:21:48.695Z,-5.59
2023-02-05T23:24:19.305Z,-5.61
2023-02-05T23:26:48.518Z,-5.61
2023-02-05T23:29:17.214Z,-5.63
2023-02-05T23:31:44.406Z,-5.59
2023-02-05T23:34:12.186Z,-5.61
2023-02-05T23:36:39.345Z,-5.63
2023-02-05T23:39:06.367Z,-5.66
2023-02-05T23:41:36.563Z,-5.71
2023-02-05T23:44:17.725Z,-5.76
2023-02-05T23:46:46.623Z,-5.77
2023-02-05T23:49:17.683Z,-5.83
2023-02-05T23:51:44.915Z,-5.86
2023-02-05T23:54:12.237Z,-5.88
2023-02-05T23:56:42.236Z,-5.97
2023-02-05T23:59:11.220Z,-5.99
